sensor_id;sensor_type;location;lat;lon;timestamp;temperature;humidity
10431;DHT22;5262;59.958;17.726;2023-04-07T00:00:17;0.40;99.90
10431;DHT22;5262;59.958;17.726;2023-04-07T00:02:43;0.40;99.90
10431;DHT22;5262;59.958;17.726;2023-04-07T00:05:09;0.50;99.90
10431;DHT22;5262;59.958;17.726;2023-04-07T00:07:34;0.40;99.90
10431;DHT22;5262;59.958;17.726;2023-04-07T00:10:00;0.40;99.90
10431;DHT22;5262;59.958;17.726;2023-04-07T00:12:26;0.40;99.90
10431;DHT22;5262;59.958;17.726;2023-04-07T00:14:51;0.40;99.90
10431;DHT22;5262;59.958;17.726;2023-04-07T00:17:17;0.30;99.90
10431;DHT22;5262;59.958;17.726;2023-04-07T00:19:42;0.30;99.90
10431;DHT22;5262;59.958;17.726;2023-04-07T00:22:08;0.30;99.90
10431;DHT22;5262;59.958;17.726;2023-04-07T00:24:34;0.40;99.90
10431;DHT22;5262;59.958;17.726;2023-04-07T00:27:00;0.40;99.90
10431;DHT22;5262;59.958;17.726;2023-04-07T00:29:26;0.40;99.90
10431;DHT22;5262;59.958;17.726;2023-04-07T00:31:52;0.40;99.90
10431;DHT22;5262;59.958;17.726;2023-04-07T00:34:17;0.40;99.90
10431;DHT22;5262;59.958;17.726;2023-04-07T00:36:43;0.40;99.90
10431;DHT22;5262;59.958;17.726;2023-04-07T00:39:09;0.40;99.90
10431;DHT22;5262;59.958;17.726;2023-04-07T00:41:34;0.40;99.90
10431;DHT22;5262;59.958;17.726;2023-04-07T00:44:00;0.40;99.90
10431;DHT22;5262;59.958;17.726;2023-04-07T00:46:27;0.40;99.90
10431;DHT22;5262;59.958;17.726;2023-04-07T00:48:52;0.40;99.90
10431;DHT22;5262;59.958;17.726;2023-04-07T00:51:20;0.50;99.90
10431;DHT22;5262;59.958;17.726;2023-04-07T00:53:47;0.40;99.90
10431;DHT22;5262;59.958;17.726;2023-04-07T00:56:13;0.30;99.90
10431;DHT22;5262;59.958;17.726;2023-04-07T00:58:39;0.40;99.90
10431;DHT22;5262;59.958;17.726;2023-04-07T01:01:08;0.40;99.90
10431;DHT22;5262;59.958;17.726;2023-04-07T01:03:48;0.40;99.90
10431;DHT22;5262;59.958;17.726;2023-04-07T01:06:16;0.30;99.90
10431;DHT22;5262;59.958;17.726;2023-04-07T01:11:42;0.30;99.90
10431;DHT22;5262;59.958;17.726;2023-04-07T01:14:10;0.30;99.90
10431;DHT22;5262;59.958;17.726;2023-04-07T01:16:45;0.40;99.90
10431;DHT22;5262;59.958;17.726;2023-04-07T01:21:39;0.30;99.90
10431;DHT22;5262;59.958;17.726;2023-04-07T01:27:57;0.40;99.90
10431;DHT22;5262;59.958;17.726;2023-04-07T01:29:55;0.40;99.90
10431;DHT22;5262;59.958;17.726;2023-04-07T01:32:22;0.40;99.90
10431;DHT22;5262;59.958;17.726;2023-04-07T01:34:49;0.50;99.90
10431;DHT22;5262;59.958;17.726;2023-04-07T01:37:16;0.50;99.90
10431;DHT22;5262;59.958;17.726;2023-04-07T01:39:42;0.50;99.90
10431;DHT22;5262;59.958;17.726;2023-04-07T01:42:09;0.50;99.90
10431;DHT22;5262;59.958;17.726;2023-04-07T01:44:35;0.50;99.90
10431;DHT22;5262;59.958;17.726;2023-04-07T01:47:01;0.40;99.90
10431;DHT22;5262;59.958;17.726;2023-04-07T01:49:29;0.30;99.90
10431;DHT22;5262;59.958;17.726;2023-04-07T01:51:56;0.40;99.90
10431;DHT22;5262;59.958;17.726;2023-04-07T01:54:23;0.30;99.90
10431;DHT22;5262;59.958;17.726;2023-04-07T01:56:48;0.30;99.90
10431;DHT22;5262;59.958;17.726;2023-04-07T01:59:14;0.30;99.90
10431;DHT22;5262;59.958;17.726;2023-04-07T02:01:39;0.30;99.90
10431;DHT22;5262;59.958;17.726;2023-04-07T02:04:29;0.30;99.90
10431;DHT22;5262;59.958;17.726;2023-04-07T02:07:02;0.30;99.90
10431;DHT22;5262;59.958;17.726;2023-04-07T02:09:31;0.30;99.90
10431;DHT22;5262;59.958;17.726;2023-04-07T02:11:59;0.20;99.90
10431;DHT22;5262;59.958;17.726;2023-04-07T02:14:26;0.30;99.90
10431;DHT22;5262;59.958;17.726;2023-04-07T02:16:52;0.20;99.90
10431;DHT22;5262;59.958;17.726;2023-04-07T02:19:18;0.30;99.90
10431;DHT22;5262;59.958;17.726;2023-04-07T02:21:45;0.20;99.90
10431;DHT22;5262;59.958;17.726;2023-04-07T02:24:11;0.30;99.90
10431;DHT22;5262;59.958;17.726;2023-04-07T02:26:37;0.30;99.90
10431;DHT22;5262;59.958;17.726;2023-04-07T02:29:06;0.30;99.90
10431;DHT22;5262;59.958;17.726;2023-04-07T02:31:31;0.20;99.90
10431;DHT22;5262;59.958;17.726;2023-04-07T02:33:57;0.20;99.90
10431;DHT22;5262;59.958;17.726;2023-04-07T02:36:22;0.30;99.90
10431;DHT22;5262;59.958;17.726;2023-04-07T02:38:48;0.30;99.90
10431;DHT22;5262;59.958;17.726;2023-04-07T02:41:14;0.30;99.90
10431;DHT22;5262;59.958;17.726;2023-04-07T02:43:40;0.30;99.90
10431;DHT22;5262;59.958;17.726;2023-04-07T02:46:05;0.30;99.90
10431;DHT22;5262;59.958;17.726;2023-04-07T02:48:31;0.30;99.90
10431;DHT22;5262;59.958;17.726;2023-04-07T02:50:58;0.30;99.90
10431;DHT22;5262;59.958;17.726;2023-04-07T02:53:23;0.20;99.90
10431;DHT22;5262;59.958;17.726;2023-04-07T02:55:49;0.20;99.90
10431;DHT22;5262;59.958;17.726;2023-04-07T02:58:15;0.30;99.90
10431;DHT22;5262;59.958;17.726;2023-04-07T03:00:40;0.30;99.90
10431;DHT22;5262;59.958;17.726;2023-04-07T03:03:06;0.30;99.90
10431;DHT22;5262;59.958;17.726;2023-04-07T03:05:32;0.30;99.90
10431;DHT22;5262;59.958;17.726;2023-04-07T03:07:57;0.30;99.90
10431;DHT22;5262;59.958;17.726;2023-04-07T03:10:23;0.30;99.90
10431;DHT22;5262;59.958;17.726;2023-04-07T03:12:49;0.30;99.90
10431;DHT22;5262;59.958;17.726;2023-04-07T03:15:14;0.30;99.90
10431;DHT22;5262;59.958;17.726;2023-04-07T03:17:40;0.40;99.90
10431;DHT22;5262;59.958;17.726;2023-04-07T03:20:06;0.30;99.90
10431;DHT22;5262;59.958;17.726;2023-04-07T03:22:32;0.40;99.90
10431;DHT22;5262;59.958;17.726;2023-04-07T03:24:58;0.40;99.90
10431;DHT22;5262;59.958;17.726;2023-04-07T03:27:23;0.40;99.90
10431;DHT22;5262;59.958;17.726;2023-04-07T03:29:49;0.30;99.90
10431;DHT22;5262;59.958;17.726;2023-04-07T03:32:17;0.20;99.90
10431;DHT22;5262;59.958;17.726;2023-04-07T03:34:43;0.20;99.90
10431;DHT22;5262;59.958;17.726;2023-04-07T03:37:09;0.20;99.90
10431;DHT22;5262;59.958;17.726;2023-04-07T03:39:34;0.30;99.90
10431;DHT22;5262;59.958;17.726;2023-04-07T03:42:02;0.30;99.90
10431;DHT22;5262;59.958;17.726;2023-04-07T03:44:28;0.30;99.90
10431;DHT22;5262;59.958;17.726;2023-04-07T03:46:53;0.30;99.90
10431;DHT22;5262;59.958;17.726;2023-04-07T03:49:19;0.20;99.90
10431;DHT22;5262;59.958;17.726;2023-04-07T03:51:45;0.20;99.90
10431;DHT22;5262;59.958;17.726;2023-04-07T03:54:11;0.30;99.90
10431;DHT22;5262;59.958;17.726;2023-04-07T03:56:36;0.30;99.90
10431;DHT22;5262;59.958;17.726;2023-04-07T03:59:02;0.30;99.90
10431;DHT22;5262;59.958;17.726;2023-04-07T04:01:28;0.20;99.90
10431;DHT22;5262;59.958;17.726;2023-04-07T04:03:54;0.30;99.90
10431;DHT22;5262;59.958;17.726;2023-04-07T04:06:19;0.20;99.90
10431;DHT22;5262;59.958;17.726;2023-04-07T04:08:45;0.30;99.90
10431;DHT22;5262;59.958;17.726;2023-04-07T04:11:11;0.40;99.90
10431;DHT22;5262;59.958;17.726;2023-04-07T04:13:37;0.30;99.90
10431;DHT22;5262;59.958;17.726;2023-04-07T04:16:03;0.30;99.90
10431;DHT22;5262;59.958;17.726;2023-04-07T04:18:28;0.30;99.90
10431;DHT22;5262;59.958;17.726;2023-04-07T04:20:54;0.30;99.90
10431;DHT22;5262;59.958;17.726;2023-04-07T04:23:20;0.30;99.90
10431;DHT22;5262;59.958;17.726;2023-04-07T04:25:46;0.30;99.90
10431;DHT22;5262;59.958;17.726;2023-04-07T04:28:11;0.40;99.90
10431;DHT22;5262;59.958;17.726;2023-04-07T04:30:37;0.30;99.90
10431;DHT22;5262;59.958;17.726;2023-04-07T04:33:02;0.30;99.90
10431;DHT22;5262;59.958;17.726;2023-04-07T04:35:28;0.40;99.90
10431;DHT22;5262;59.958;17.726;2023-04-07T04:37:54;0.40;99.90
10431;DHT22;5262;59.958;17.726;2023-04-07T04:40:19;0.30;99.90
10431;DHT22;5262;59.958;17.726;2023-04-07T04:42:45;0.40;99.90
10431;DHT22;5262;59.958;17.726;2023-04-07T04:45:11;0.40;99.90
10431;DHT22;5262;59.958;17.726;2023-04-07T04:47:36;0.30;99.90
10431;DHT22;5262;59.958;17.726;2023-04-07T04:50:05;0.30;99.90
10431;DHT22;5262;59.958;17.726;2023-04-07T04:52:31;0.40;99.90
10431;DHT22;5262;59.958;17.726;2023-04-07T04:54:56;0.50;99.90
10431;DHT22;5262;59.958;17.726;2023-04-07T04:57:22;0.50;99.90
10431;DHT22;5262;59.958;17.726;2023-04-07T04:59:48;0.60;99.90
10431;DHT22;5262;59.958;17.726;2023-04-07T05:02:13;0.50;99.90
10431;DHT22;5262;59.958;17.726;2023-04-07T05:04:39;0.60;99.90
10431;DHT22;5262;59.958;17.726;2023-04-07T05:07:04;0.60;99.90
10431;DHT22;5262;59.958;17.726;2023-04-07T05:09:30;0.60;99.90
10431;DHT22;5262;59.958;17.726;2023-04-07T05:11:56;0.60;99.90
10431;DHT22;5262;59.958;17.726;2023-04-07T05:14:22;0.60;99.90
10431;DHT22;5262;59.958;17.726;2023-04-07T05:16:48;0.70;99.90
10431;DHT22;5262;59.958;17.726;2023-04-07T05:19:13;0.60;99.90
10431;DHT22;5262;59.958;17.726;2023-04-07T05:21:39;0.70;99.90
10431;DHT22;5262;59.958;17.726;2023-04-07T05:24:05;0.80;99.90
10431;DHT22;5262;59.958;17.726;2023-04-07T05:26:31;0.80;99.90
10431;DHT22;5262;59.958;17.726;2023-04-07T05:28:57;0.70;99.90
10431;DHT22;5262;59.958;17.726;2023-04-07T05:31:22;0.80;99.90
10431;DHT22;5262;59.958;17.726;2023-04-07T05:33:48;0.80;99.90
10431;DHT22;5262;59.958;17.726;2023-04-07T05:36:14;0.80;99.90
10431;DHT22;5262;59.958;17.726;2023-04-07T05:38:39;0.80;99.90
10431;DHT22;5262;59.958;17.726;2023-04-07T05:41:06;0.90;99.90
10431;DHT22;5262;59.958;17.726;2023-04-07T05:43:31;0.90;99.90
10431;DHT22;5262;59.958;17.726;2023-04-07T05:45:57;0.90;99.90
10431;DHT22;5262;59.958;17.726;2023-04-07T05:48:23;1.00;99.90
10431;DHT22;5262;59.958;17.726;2023-04-07T05:50:48;1.00;99.90
10431;DHT22;5262;59.958;17.726;2023-04-07T05:53:14;1.00;99.90
10431;DHT22;5262;59.958;17.726;2023-04-07T05:55:43;1.00;99.90
10431;DHT22;5262;59.958;17.726;2023-04-07T05:58:08;1.10;99.90
10431;DHT22;5262;59.958;17.726;2023-04-07T06:00:34;1.20;99.90
10431;DHT22;5262;59.958;17.726;2023-04-07T06:03:00;1.10;99.90
10431;DHT22;5262;59.958;17.726;2023-04-07T06:05:26;1.20;99.90
10431;DHT22;5262;59.958;17.726;2023-04-07T06:07:51;1.20;99.90
10431;DHT22;5262;59.958;17.726;2023-04-07T06:10:18;1.20;99.90
10431;DHT22;5262;59.958;17.726;2023-04-07T06:12:44;1.30;99.90
10431;DHT22;5262;59.958;17.726;2023-04-07T06:15:10;1.40;99.90
10431;DHT22;5262;59.958;17.726;2023-04-07T06:17:36;1.40;99.90
10431;DHT22;5262;59.958;17.726;2023-04-07T06:20:01;1.40;99.90
10431;DHT22;5262;59.958;17.726;2023-04-07T06:22:27;1.40;99.90
10431;DHT22;5262;59.958;17.726;2023-04-07T06:24:53;1.50;99.90
10431;DHT22;5262;59.958;17.726;2023-04-07T06:27:20;1.50;99.90
10431;DHT22;5262;59.958;17.726;2023-04-07T06:29:45;1.60;99.90
10431;DHT22;5262;59.958;17.726;2023-04-07T06:32:11;1.60;99.90
10431;DHT22;5262;59.958;17.726;2023-04-07T06:34:37;1.60;99.90
10431;DHT22;5262;59.958;17.726;2023-04-07T06:37:02;1.70;99.90
10431;DHT22;5262;59.958;17.726;2023-04-07T06:39:29;1.70;99.90
10431;DHT22;5262;59.958;17.726;2023-04-07T06:41:55;1.80;99.90
10431;DHT22;5262;59.958;17.726;2023-04-07T06:44:22;1.70;99.90
10431;DHT22;5262;59.958;17.726;2023-04-07T06:46:47;1.90;99.90
10431;DHT22;5262;59.958;17.726;2023-04-07T06:49:17;1.90;99.90
10431;DHT22;5262;59.958;17.726;2023-04-07T06:51:43;2.00;99.90
10431;DHT22;5262;59.958;17.726;2023-04-07T06:54:09;2.00;99.90
10431;DHT22;5262;59.958;17.726;2023-04-07T06:56:43;2.20;99.90
10431;DHT22;5262;59.958;17.726;2023-04-07T06:59:09;2.20;99.90
10431;DHT22;5262;59.958;17.726;2023-04-07T07:01:34;2.30;99.90
10431;DHT22;5262;59.958;17.726;2023-04-07T07:04:02;2.30;99.90
10431;DHT22;5262;59.958;17.726;2023-04-07T07:06:27;2.40;99.90
10431;DHT22;5262;59.958;17.726;2023-04-07T07:08:53;2.40;99.90
10431;DHT22;5262;59.958;17.726;2023-04-07T07:11:19;2.50;99.90
10431;DHT22;5262;59.958;17.726;2023-04-07T07:13:45;2.60;99.90
10431;DHT22;5262;59.958;17.726;2023-04-07T07:16:11;2.60;99.90
10431;DHT22;5262;59.958;17.726;2023-04-07T07:18:39;2.80;99.90
10431;DHT22;5262;59.958;17.726;2023-04-07T07:21:05;2.60;99.90
10431;DHT22;5262;59.958;17.726;2023-04-07T07:23:31;2.70;99.90
10431;DHT22;5262;59.958;17.726;2023-04-07T07:25:56;2.80;99.90
10431;DHT22;5262;59.958;17.726;2023-04-07T07:28:22;2.80;99.90
10431;DHT22;5262;59.958;17.726;2023-04-07T07:30:48;2.70;99.90
10431;DHT22;5262;59.958;17.726;2023-04-07T07:33:14;2.70;99.90
10431;DHT22;5262;59.958;17.726;2023-04-07T07:35:39;2.80;99.90
10431;DHT22;5262;59.958;17.726;2023-04-07T07:38:05;2.90;99.90
10431;DHT22;5262;59.958;17.726;2023-04-07T07:40:32;3.00;99.90
10431;DHT22;5262;59.958;17.726;2023-04-07T07:42:58;2.70;99.90
10431;DHT22;5262;59.958;17.726;2023-04-07T07:45:24;3.00;99.90
10431;DHT22;5262;59.958;17.726;2023-04-07T07:47:50;3.00;99.90
10431;DHT22;5262;59.958;17.726;2023-04-07T07:50:15;3.00;99.90
10431;DHT22;5262;59.958;17.726;2023-04-07T07:52:41;2.80;99.90
10431;DHT22;5262;59.958;17.726;2023-04-07T07:55:08;2.70;99.90
10431;DHT22;5262;59.958;17.726;2023-04-07T07:57:34;2.80;99.90
10431;DHT22;5262;59.958;17.726;2023-04-07T07:59:59;2.90;99.90
10431;DHT22;5262;59.958;17.726;2023-04-07T08:02:25;3.10;99.90
10431;DHT22;5262;59.958;17.726;2023-04-07T08:04:56;3.10;99.90
10431;DHT22;5262;59.958;17.726;2023-04-07T08:07:22;3.20;99.90
10431;DHT22;5262;59.958;17.726;2023-04-07T08:09:47;3.10;99.90
10431;DHT22;5262;59.958;17.726;2023-04-07T08:12:14;3.20;99.90
10431;DHT22;5262;59.958;17.726;2023-04-07T08:14:40;3.10;99.90
10431;DHT22;5262;59.958;17.726;2023-04-07T08:17:05;3.20;99.90
10431;DHT22;5262;59.958;17.726;2023-04-07T08:19:31;3.10;99.90
10431;DHT22;5262;59.958;17.726;2023-04-07T08:21:57;3.20;99.90
10431;DHT22;5262;59.958;17.726;2023-04-07T08:24:22;3.10;99.90
10431;DHT22;5262;59.958;17.726;2023-04-07T08:26:48;3.10;99.90
10431;DHT22;5262;59.958;17.726;2023-04-07T08:29:14;3.20;99.90
10431;DHT22;5262;59.958;17.726;2023-04-07T08:31:39;3.30;99.90
10431;DHT22;5262;59.958;17.726;2023-04-07T08:34:05;3.30;99.90
10431;DHT22;5262;59.958;17.726;2023-04-07T08:36:31;3.20;99.90
10431;DHT22;5262;59.958;17.726;2023-04-07T08:38:57;3.30;99.90
10431;DHT22;5262;59.958;17.726;2023-04-07T08:41:38;3.30;99.90
10431;DHT22;5262;59.958;17.726;2023-04-07T08:44:06;3.30;99.90
10431;DHT22;5262;59.958;17.726;2023-04-07T08:46:32;3.40;99.90
10431;DHT22;5262;59.958;17.726;2023-04-07T08:49:00;3.40;99.90
10431;DHT22;5262;59.958;17.726;2023-04-07T08:51:30;3.60;99.90
10431;DHT22;5262;59.958;17.726;2023-04-07T08:54:02;3.60;99.90
10431;DHT22;5262;59.958;17.726;2023-04-07T08:56:31;3.80;99.90
10431;DHT22;5262;59.958;17.726;2023-04-07T08:58:57;3.80;99.90
10431;DHT22;5262;59.958;17.726;2023-04-07T09:01:24;3.70;99.90
10431;DHT22;5262;59.958;17.726;2023-04-07T09:03:50;3.80;99.90
10431;DHT22;5262;59.958;17.726;2023-04-07T09:06:16;3.80;99.90
10431;DHT22;5262;59.958;17.726;2023-04-07T09:08:42;3.90;99.90
10431;DHT22;5262;59.958;17.726;2023-04-07T09:11:07;3.90;99.90
10431;DHT22;5262;59.958;17.726;2023-04-07T09:13:33;4.00;99.90
10431;DHT22;5262;59.958;17.726;2023-04-07T09:16:01;3.80;99.90
10431;DHT22;5262;59.958;17.726;2023-04-07T09:18:27;4.00;99.90
10431;DHT22;5262;59.958;17.726;2023-04-07T09:20:58;3.80;99.90
10431;DHT22;5262;59.958;17.726;2023-04-07T09:23:31;3.90;99.90
10431;DHT22;5262;59.958;17.726;2023-04-07T09:25:58;4.00;99.90
10431;DHT22;5262;59.958;17.726;2023-04-07T09:28:25;4.20;99.90
10431;DHT22;5262;59.958;17.726;2023-04-07T09:31:02;3.90;99.90
10431;DHT22;5262;59.958;17.726;2023-04-07T09:33:29;3.70;99.90
10431;DHT22;5262;59.958;17.726;2023-04-07T09:35:55;3.90;99.90
10431;DHT22;5262;59.958;17.726;2023-04-07T09:38:21;3.80;99.90
10431;DHT22;5262;59.958;17.726;2023-04-07T09:40:47;4.00;99.90
10431;DHT22;5262;59.958;17.726;2023-04-07T09:43:18;4.20;99.90
10431;DHT22;5262;59.958;17.726;2023-04-07T09:45:43;4.20;99.90
10431;DHT22;5262;59.958;17.726;2023-04-07T09:48:20;4.20;99.90
10431;DHT22;5262;59.958;17.726;2023-04-07T09:50:46;4.20;99.90
10431;DHT22;5262;59.958;17.726;2023-04-07T09:53:16;4.40;99.90
10431;DHT22;5262;59.958;17.726;2023-04-07T09:55:44;4.50;99.90
10431;DHT22;5262;59.958;17.726;2023-04-07T09:58:12;4.40;99.90
10431;DHT22;5262;59.958;17.726;2023-04-07T10:00:40;4.30;99.90
10431;DHT22;5262;59.958;17.726;2023-04-07T10:03:06;4.30;99.90
10431;DHT22;5262;59.958;17.726;2023-04-07T10:05:33;4.20;99.90
10431;DHT22;5262;59.958;17.726;2023-04-07T10:08:01;4.40;99.90
10431;DHT22;5262;59.958;17.726;2023-04-07T10:10:27;4.50;99.90
10431;DHT22;5262;59.958;17.726;2023-04-07T10:12:56;4.30;99.90
10431;DHT22;5262;59.958;17.726;2023-04-07T10:15:22;4.40;99.90
10431;DHT22;5262;59.958;17.726;2023-04-07T10:17:48;4.40;99.90
10431;DHT22;5262;59.958;17.726;2023-04-07T10:20:17;4.40;99.90
10431;DHT22;5262;59.958;17.726;2023-04-07T10:22:46;4.40;99.90
10431;DHT22;5262;59.958;17.726;2023-04-07T10:25:13;4.60;99.90
10431;DHT22;5262;59.958;17.726;2023-04-07T10:27:52;4.70;99.90
10431;DHT22;5262;59.958;17.726;2023-04-07T10:30:27;4.70;99.90
10431;DHT22;5262;59.958;17.726;2023-04-07T10:32:54;4.60;99.90
10431;DHT22;5262;59.958;17.726;2023-04-07T10:35:20;4.50;99.90
10431;DHT22;5262;59.958;17.726;2023-04-07T10:38:11;4.70;99.90
10431;DHT22;5262;59.958;17.726;2023-04-07T10:40:39;4.50;99.90
10431;DHT22;5262;59.958;17.726;2023-04-07T10:43:06;4.60;99.90
10431;DHT22;5262;59.958;17.726;2023-04-07T10:48:17;4.70;99.90
10431;DHT22;5262;59.958;17.726;2023-04-07T10:50:45;4.80;99.90
10431;DHT22;5262;59.958;17.726;2023-04-07T10:53:12;4.70;99.90
10431;DHT22;5262;59.958;17.726;2023-04-07T10:55:39;4.90;99.90
10431;DHT22;5262;59.958;17.726;2023-04-07T10:58:24;4.90;99.90
10431;DHT22;5262;59.958;17.726;2023-04-07T11:03:27;5.00;99.90
10431;DHT22;5262;59.958;17.726;2023-04-07T11:06:02;5.20;99.90
10431;DHT22;5262;59.958;17.726;2023-04-07T11:08:33;5.40;99.90
10431;DHT22;5262;59.958;17.726;2023-04-07T11:10:58;5.30;99.90
10431;DHT22;5262;59.958;17.726;2023-04-07T11:13:25;5.20;99.90
10431;DHT22;5262;59.958;17.726;2023-04-07T11:15:51;5.20;99.90
10431;DHT22;5262;59.958;17.726;2023-04-07T11:18:19;5.40;99.90
10431;DHT22;5262;59.958;17.726;2023-04-07T11:20:47;5.50;99.90
10431;DHT22;5262;59.958;17.726;2023-04-07T11:23:14;5.40;99.90
10431;DHT22;5262;59.958;17.726;2023-04-07T11:25:46;5.50;99.90
10431;DHT22;5262;59.958;17.726;2023-04-07T11:28:13;5.50;99.90
10431;DHT22;5262;59.958;17.726;2023-04-07T11:30:44;5.60;99.90
10431;DHT22;5262;59.958;17.726;2023-04-07T11:33:15;5.70;99.90
10431;DHT22;5262;59.958;17.726;2023-04-07T11:35:53;5.80;99.90
10431;DHT22;5262;59.958;17.726;2023-04-07T11:38:20;5.90;99.90
10431;DHT22;5262;59.958;17.726;2023-04-07T11:40:47;5.70;99.90
10431;DHT22;5262;59.958;17.726;2023-04-07T11:43:17;5.60;99.90
10431;DHT22;5262;59.958;17.726;2023-04-07T11:45:43;5.70;99.90
10431;DHT22;5262;59.958;17.726;2023-04-07T11:48:26;5.70;99.90
10431;DHT22;5262;59.958;17.726;2023-04-07T11:50:51;5.70;99.90
10431;DHT22;5262;59.958;17.726;2023-04-07T11:53:33;5.80;99.90
10431;DHT22;5262;59.958;17.726;2023-04-07T11:56:07;5.70;99.90
10431;DHT22;5262;59.958;17.726;2023-04-07T11:58:35;5.80;99.90
10431;DHT22;5262;59.958;17.726;2023-04-07T12:01:03;5.80;99.90
10431;DHT22;5262;59.958;17.726;2023-04-07T12:03:34;5.70;99.90
10431;DHT22;5262;59.958;17.726;2023-04-07T12:06:00;5.70;99.90
10431;DHT22;5262;59.958;17.726;2023-04-07T12:08:40;5.80;99.90
10431;DHT22;5262;59.958;17.726;2023-04-07T12:11:07;5.90;99.90
10431;DHT22;5262;59.958;17.726;2023-04-07T12:13:35;5.90;99.90
10431;DHT22;5262;59.958;17.726;2023-04-07T12:16:01;5.80;99.90
10431;DHT22;5262;59.958;17.726;2023-04-07T12:18:27;6.10;99.90
10431;DHT22;5262;59.958;17.726;2023-04-07T12:20:53;6.40;99.90
10431;DHT22;5262;59.958;17.726;2023-04-07T12:23:19;6.40;99.90
10431;DHT22;5262;59.958;17.726;2023-04-07T12:25:44;6.50;99.90
10431;DHT22;5262;59.958;17.726;2023-04-07T12:28:10;6.60;99.90
10431;DHT22;5262;59.958;17.726;2023-04-07T12:30:36;6.60;99.90
10431;DHT22;5262;59.958;17.726;2023-04-07T12:33:01;6.80;99.90
10431;DHT22;5262;59.958;17.726;2023-04-07T12:35:28;7.00;99.90
10431;DHT22;5262;59.958;17.726;2023-04-07T12:37:55;7.20;99.90
10431;DHT22;5262;59.958;17.726;2023-04-07T12:40:22;7.10;99.90
10431;DHT22;5262;59.958;17.726;2023-04-07T12:42:48;7.30;99.90
10431;DHT22;5262;59.958;17.726;2023-04-07T12:45:13;7.20;99.90
10431;DHT22;5262;59.958;17.726;2023-04-07T12:47:39;7.30;99.90
10431;DHT22;5262;59.958;17.726;2023-04-07T12:50:05;7.50;99.90
10431;DHT22;5262;59.958;17.726;2023-04-07T12:52:31;7.60;99.90
10431;DHT22;5262;59.958;17.726;2023-04-07T12:54:57;7.70;99.90
10431;DHT22;5262;59.958;17.726;2023-04-07T12:57:23;7.80;99.90
10431;DHT22;5262;59.958;17.726;2023-04-07T12:59:48;7.80;99.90
10431;DHT22;5262;59.958;17.726;2023-04-07T13:02:14;7.90;99.90
10431;DHT22;5262;59.958;17.726;2023-04-07T13:04:42;7.70;99.90
10431;DHT22;5262;59.958;17.726;2023-04-07T13:07:11;7.70;99.90
10431;DHT22;5262;59.958;17.726;2023-04-07T13:09:38;7.90;99.90
10431;DHT22;5262;59.958;17.726;2023-04-07T13:12:03;8.00;99.90
10431;DHT22;5262;59.958;17.726;2023-04-07T13:14:29;8.10;99.90
10431;DHT22;5262;59.958;17.726;2023-04-07T13:16:55;8.10;99.90
10431;DHT22;5262;59.958;17.726;2023-04-07T13:19:20;8.10;99.90
10431;DHT22;5262;59.958;17.726;2023-04-07T13:21:46;8.10;99.90
10431;DHT22;5262;59.958;17.726;2023-04-07T13:24:12;7.90;99.90
10431;DHT22;5262;59.958;17.726;2023-04-07T13:26:37;8.00;99.90
10431;DHT22;5262;59.958;17.726;2023-04-07T13:29:03;7.80;99.90
10431;DHT22;5262;59.958;17.726;2023-04-07T13:31:29;7.90;99.90
10431;DHT22;5262;59.958;17.726;2023-04-07T13:33:54;8.00;99.90
10431;DHT22;5262;59.958;17.726;2023-04-07T13:36:21;7.90;99.90
10431;DHT22;5262;59.958;17.726;2023-04-07T13:38:47;7.80;99.70
10431;DHT22;5262;59.958;17.726;2023-04-07T13:41:12;7.80;99.90
10431;DHT22;5262;59.958;17.726;2023-04-07T13:43:38;7.70;99.90
10431;DHT22;5262;59.958;17.726;2023-04-07T13:46:04;7.90;99.90
10431;DHT22;5262;59.958;17.726;2023-04-07T13:48:30;8.10;99.80
10431;DHT22;5262;59.958;17.726;2023-04-07T13:50:55;8.10;99.80
10431;DHT22;5262;59.958;17.726;2023-04-07T13:53:21;8.00;99.40
10431;DHT22;5262;59.958;17.726;2023-04-07T13:55:47;7.80;98.80
10431;DHT22;5262;59.958;17.726;2023-04-07T13:58:13;8.00;99.20
10431;DHT22;5262;59.958;17.726;2023-04-07T14:00:39;8.10;99.70
10431;DHT22;5262;59.958;17.726;2023-04-07T14:03:05;8.00;98.80
10431;DHT22;5262;59.958;17.726;2023-04-07T14:05:32;8.30;98.70
10431;DHT22;5262;59.958;17.726;2023-04-07T14:07:57;8.10;98.90
10431;DHT22;5262;59.958;17.726;2023-04-07T14:10:23;8.10;99.20
10431;DHT22;5262;59.958;17.726;2023-04-07T14:12:49;8.40;99.20
10431;DHT22;5262;59.958;17.726;2023-04-07T14:15:14;8.20;98.80
10431;DHT22;5262;59.958;17.726;2023-04-07T14:17:40;8.30;98.90
10431;DHT22;5262;59.958;17.726;2023-04-07T14:20:06;8.70;98.60
10431;DHT22;5262;59.958;17.726;2023-04-07T14:22:32;8.60;97.80
10431;DHT22;5262;59.958;17.726;2023-04-07T14:24:57;8.40;97.40
10431;DHT22;5262;59.958;17.726;2023-04-07T14:27:23;8.30;97.40
10431;DHT22;5262;59.958;17.726;2023-04-07T14:29:48;8.30;98.20
10431;DHT22;5262;59.958;17.726;2023-04-07T14:32:15;8.00;97.10
10431;DHT22;5262;59.958;17.726;2023-04-07T14:34:41;8.00;97.60
10431;DHT22;5262;59.958;17.726;2023-04-07T14:37:06;8.00;97.50
10431;DHT22;5262;59.958;17.726;2023-04-07T14:39:33;8.00;98.60
10431;DHT22;5262;59.958;17.726;2023-04-07T14:41:58;8.10;98.00
10431;DHT22;5262;59.958;17.726;2023-04-07T14:44:25;8.10;97.60
10431;DHT22;5262;59.958;17.726;2023-04-07T14:46:51;7.90;96.90
10431;DHT22;5262;59.958;17.726;2023-04-07T14:49:17;8.00;97.80
10431;DHT22;5262;59.958;17.726;2023-04-07T14:51:42;7.90;97.50
10431;DHT22;5262;59.958;17.726;2023-04-07T14:54:09;7.70;98.00
10431;DHT22;5262;59.958;17.726;2023-04-07T14:56:34;7.80;97.10
10431;DHT22;5262;59.958;17.726;2023-04-07T14:59:00;7.70;97.40
10431;DHT22;5262;59.958;17.726;2023-04-07T15:01:26;7.50;97.90
10431;DHT22;5262;59.958;17.726;2023-04-07T15:03:51;7.60;98.60
10431;DHT22;5262;59.958;17.726;2023-04-07T15:06:18;7.60;98.50
10431;DHT22;5262;59.958;17.726;2023-04-07T15:08:44;7.70;98.50
10431;DHT22;5262;59.958;17.726;2023-04-07T15:11:11;7.70;98.10
10431;DHT22;5262;59.958;17.726;2023-04-07T15:13:37;7.50;97.30
10431;DHT22;5262;59.958;17.726;2023-04-07T15:16:13;7.60;97.50
10431;DHT22;5262;59.958;17.726;2023-04-07T15:18:41;7.50;97.60
10431;DHT22;5262;59.958;17.726;2023-04-07T15:21:08;7.40;98.50
10431;DHT22;5262;59.958;17.726;2023-04-07T15:23:35;7.40;97.90
10431;DHT22;5262;59.958;17.726;2023-04-07T15:26:02;7.40;97.60
10431;DHT22;5262;59.958;17.726;2023-04-07T15:28:28;7.40;97.20
10431;DHT22;5262;59.958;17.726;2023-04-07T15:30:54;7.30;98.00
10431;DHT22;5262;59.958;17.726;2023-04-07T15:33:19;7.20;98.10
10431;DHT22;5262;59.958;17.726;2023-04-07T15:35:45;7.00;98.80
10431;DHT22;5262;59.958;17.726;2023-04-07T15:38:10;6.90;98.40
10431;DHT22;5262;59.958;17.726;2023-04-07T15:40:37;6.90;98.40
10431;DHT22;5262;59.958;17.726;2023-04-07T15:43:03;6.90;98.10
10431;DHT22;5262;59.958;17.726;2023-04-07T15:45:33;6.80;99.30
10431;DHT22;5262;59.958;17.726;2023-04-07T15:47:59;6.70;99.00
10431;DHT22;5262;59.958;17.726;2023-04-07T15:50:25;6.70;98.70
10431;DHT22;5262;59.958;17.726;2023-04-07T15:52:53;6.50;98.80
10431;DHT22;5262;59.958;17.726;2023-04-07T15:55:18;6.50;99.60